Time;durP1;ratioP1;P1;durP2;ratioP2;P2;SDS_P1;SDS_P2;PMS_P1;PMS_P2;Temp;Humidity;BMP_temperature;BMP_pressure;BME280_temperature;BME280_humidity;BME280_pressure;Samples;Min_cycle;Max_cycle;Signal;HPM_P1;HPM_P2
2021/03/26 00:00:16;;;;;;;61.42;32.97;;;;;;;;;;4900050;29;20423;-68
2021/03/26 00:02:42;;;;;;;62.25;33.45;;;;;;;;;;4917617;29;20024;-69
2021/03/26 00:05:10;;;;;;;60.92;32.67;;;;;;;;;;4917259;29;20107;-68
2021/03/26 00:07:36;;;;;;;65.00;33.80;;;;;;;;;;4916913;29;20417;-68
2021/03/26 00:10:03;;;;;;;59.75;32.08;;;;;;;;;;4917438;29;20029;-68
2021/03/26 00:12:29;;;;;;;62.53;31.98;;;;;;;;;;4900430;29;20035;-68
2021/03/26 00:14:55;;;;;;;58.90;32.30;;;;;;;;;;4916994;29;20028;-68
2021/03/26 00:17:22;;;;;;;63.90;33.08;;;;;;;;;;4900329;29;20032;-68
2021/03/26 00:19:48;;;;;;;65.35;32.88;;;;;;;;;;4917433;29;20036;-67
2021/03/26 00:22:14;;;;;;;65.55;33.72;;;;;;;;;;4917172;29;20032;-67
2021/03/26 00:24:40;;;;;;;62.75;33.35;;;;;;;;;;4917054;29;20067;-68
2021/03/26 00:27:06;;;;;;;62.08;31.95;;;;;;;;;;4918979;29;20028;-68
2021/03/26 00:29:32;;;;;;;60.45;32.33;;;;;;;;;;4920769;29;20083;-68
2021/03/26 00:31:58;;;;;;;60.50;32.78;;;;;;;;;;4921043;29;20028;-68
2021/03/26 00:34:24;;;;;;;56.35;31.63;;;;;;;;;;4920773;29;20024;-68
2021/03/26 00:36:51;;;;;;;62.17;32.72;;;;;;;;;;4920301;29;20024;-68
2021/03/26 00:39:17;;;;;;;59.17;32.63;;;;;;;;;;4904710;29;20461;-68
2021/03/26 00:41:43;;;;;;;66.55;34.15;;;;;;;;;;4920626;29;20024;-69
2021/03/26 00:44:09;;;;;;;89.63;41.42;;;;;;;;;;4920583;29;20079;-68
2021/03/26 00:46:37;;;;;;;86.47;42.28;;;;;;;;;;4920737;29;20107;-68
2021/03/26 00:49:03;;;;;;;81.82;39.30;;;;;;;;;;4920695;29;20056;-69
2021/03/26 00:51:29;;;;;;;71.78;36.35;;;;;;;;;;4920689;29;20032;-69
2021/03/26 00:53:55;;;;;;;72.63;36.22;;;;;;;;;;4920687;29;20084;-69
2021/03/26 00:56:21;;;;;;;73.78;36.85;;;;;;;;;;4920313;29;20080;-68
2021/03/26 00:58:48;;;;;;;70.72;35.83;;;;;;;;;;4920297;29;20046;-69
2021/03/26 01:01:14;;;;;;;63.50;32.58;;;;;;;;;;4919613;29;20052;-69
2021/03/26 01:03:40;;;;;;;62.47;31.88;;;;;;;;;;4918777;29;20047;-69
2021/03/26 01:06:07;;;;;;;59.92;32.65;;;;;;;;;;4919280;29;20051;-69
2021/03/26 01:08:34;;;;;;;65.50;33.05;;;;;;;;;;4919258;29;20036;-68
2021/03/26 01:11:09;;;;;;;65.50;33.67;;;;;;;;;;4919012;29;20140;-68
2021/03/26 01:13:36;;;;;;;65.93;32.10;;;;;;;;;;4919194;29;20024;-69
2021/03/26 01:16:03;;;;;;;69.57;35.58;;;;;;;;;;4918878;29;20035;-68
2021/03/26 01:18:31;;;;;;;72.63;37.33;;;;;;;;;;4918437;29;20032;-68
2021/03/26 01:20:58;;;;;;;66.55;35.25;;;;;;;;;;4919906;29;20107;-68
2021/03/26 01:23:24;;;;;;;67.05;34.50;;;;;;;;;;4918792;29;20415;-68
2021/03/26 01:25:50;;;;;;;63.38;34.22;;;;;;;;;;4901709;29;20543;-69
2021/03/26 01:28:18;;;;;;;63.22;32.92;;;;;;;;;;4918982;29;20064;-68
2021/03/26 01:30:45;;;;;;;61.83;32.92;;;;;;;;;;4918689;29;20047;-68
2021/03/26 01:33:11;;;;;;;64.55;34.22;;;;;;;;;;4901929;29;20020;-67
2021/03/26 01:35:38;;;;;;;63.90;32.05;;;;;;;;;;4918699;29;20028;-67
2021/03/26 01:38:04;;;;;;;57.05;32.38;;;;;;;;;;4917980;29;20042;-68
2021/03/26 01:40:32;;;;;;;63.40;32.70;;;;;;;;;;4918586;29;20025;-68
2021/03/26 01:43:13;;;;;;;57.38;31.20;;;;;;;;;;4918747;29;20560;-67
2021/03/26 01:45:40;;;;;;;60.90;32.75;;;;;;;;;;4918670;29;20034;-67
2021/03/26 01:48:08;;;;;;;58.40;32.05;;;;;;;;;;4918926;29;20032;-68
2021/03/26 01:50:34;;;;;;;57.58;29.92;;;;;;;;;;4918681;29;20425;-68
2021/03/26 01:53:00;;;;;;;57.78;31.35;;;;;;;;;;4918175;29;20052;-69
2021/03/26 01:55:29;;;;;;;54.83;30.05;;;;;;;;;;4918879;29;20042;-69
2021/03/26 01:57:56;;;;;;;58.38;31.75;;;;;;;;;;4918483;29;20040;-69
2021/03/26 02:00:25;;;;;;;55.30;30.70;;;;;;;;;;4893176;29;735772;-69
2021/03/26 02:02:52;;;;;;;54.75;29.35;;;;;;;;;;4903121;29;20072;-68
2021/03/26 02:05:22;;;;;;;52.47;28.20;;;;;;;;;;4902394;29;20028;-68
2021/03/26 02:07:48;;;;;;;53.30;29.70;;;;;;;;;;4918854;29;20024;-69
2021/03/26 02:10:14;;;;;;;50.28;28.33;;;;;;;;;;4919345;29;20024;-68
2021/03/26 02:12:41;;;;;;;61.08;31.52;;;;;;;;;;4919016;29;20024;-69
2021/03/26 02:15:09;;;;;;;57.28;30.02;;;;;;;;;;4919546;29;20043;-69
2021/03/26 02:17:39;;;;;;;55.25;29.48;;;;;;;;;;4902201;29;20028;-69
2021/03/26 02:20:13;;;;;;;50.72;28.85;;;;;;;;;;4918601;29;20480;-67
2021/03/26 02:22:40;;;;;;;53.10;28.75;;;;;;;;;;4919214;29;20032;-68
2021/03/26 02:25:09;;;;;;;56.92;29.17;;;;;;;;;;4919063;29;20020;-67
2021/03/26 02:27:38;;;;;;;50.38;28.90;;;;;;;;;;4918455;29;20528;-67
2021/03/26 02:30:13;;;;;;;56.72;29.63;;;;;;;;;;4918691;29;20040;-67
2021/03/26 02:32:40;;;;;;;50.30;28.95;;;;;;;;;;4918977;29;20028;-69
2021/03/26 02:35:09;;;;;;;55.58;31.00;;;;;;;;;;4918553;29;20024;-68
2021/03/26 02:37:36;;;;;;;59.42;32.63;;;;;;;;;;4918788;29;20084;-68
2021/03/26 02:40:03;;;;;;;60.55;31.60;;;;;;;;;;4918647;29;20055;-68
2021/03/26 02:42:31;;;;;;;60.05;32.15;;;;;;;;;;4901670;29;20024;-67
2021/03/26 02:44:57;;;;;;;62.88;33.67;;;;;;;;;;4918674;29;20372;-68
2021/03/26 02:47:30;;;;;;;61.58;32.45;;;;;;;;;;4918666;29;20028;-68
2021/03/26 02:50:01;;;;;;;54.58;29.92;;;;;;;;;;4900863;29;20028;-68
2021/03/26 02:52:30;;;;;;;53.85;29.58;;;;;;;;;;4918427;29;20027;-68
2021/03/26 02:55:01;;;;;;;59.45;30.50;;;;;;;;;;4918226;29;20034;-68
2021/03/26 02:57:36;;;;;;;57.63;29.80;;;;;;;;;;4901828;29;20036;-68
2021/03/26 03:00:14;;;;;;;57.20;29.58;;;;;;;;;;4918241;29;20551;-69
2021/03/26 03:02:41;;;;;;;51.70;29.52;;;;;;;;;;4901632;29;20032;-69
2021/03/26 03:05:07;;;;;;;53.08;29.20;;;;;;;;;;4918345;29;20031;-68
2021/03/26 03:07:35;;;;;;;56.17;29.23;;;;;;;;;;4918551;29;20039;-68
2021/03/26 03:10:16;;;;;;;56.30;29.90;;;;;;;;;;4918304;29;20103;-67
2021/03/26 03:12:43;;;;;;;55.53;28.58;;;;;;;;;;4918681;29;20035;-68
2021/03/26 03:15:20;;;;;;;53.20;28.52;;;;;;;;;;4918468;29;20477;-68
2021/03/26 03:18:02;;;;;;;50.85;27.25;;;;;;;;;;4917815;29;20079;-68
2021/03/26 03:20:34;;;;;;;53.70;28.85;;;;;;;;;;4901936;29;20024;-69
2021/03/26 03:23:00;;;;;;;59.03;30.83;;;;;;;;;;4917567;29;20067;-68
2021/03/26 03:25:27;;;;;;;55.85;29.45;;;;;;;;;;4901079;29;20381;-69
2021/03/26 03:27:58;;;;;;;53.83;29.27;;;;;;;;;;4917720;29;20552;-69
2021/03/26 03:30:33;;;;;;;52.95;29.02;;;;;;;;;;4918073;29;20028;-67
2021/03/26 03:32:59;;;;;;;50.80;28.65;;;;;;;;;;4917949;29;20024;-67
2021/03/26 03:35:45;;;;;;;54.58;29.63;;;;;;;;;;4917608;29;20420;-67
2021/03/26 03:38:19;;;;;;;56.50;30.80;;;;;;;;;;4917196;29;20032;-68
2021/03/26 03:40:45;;;;;;;57.00;30.10;;;;;;;;;;4918064;29;20032;-68
2021/03/26 03:43:14;;;;;;;52.67;29.05;;;;;;;;;;4918313;29;20032;-67
2021/03/26 03:45:46;;;;;;;51.88;27.77;;;;;;;;;;4917767;29;20408;-67
2021/03/26 03:48:24;;;;;;;52.05;27.85;;;;;;;;;;4918297;29;20371;-67
2021/03/26 03:50:50;;;;;;;53.42;29.67;;;;;;;;;;4917620;29;20024;-67
2021/03/26 03:53:28;;;;;;;54.45;29.48;;;;;;;;;;4900926;29;20345;-67
2021/03/26 03:56:13;;;;;;;54.67;29.15;;;;;;;;;;4900642;29;20020;-67
2021/03/26 03:58:41;;;;;;;53.08;29.55;;;;;;;;;;4917290;29;20096;-67
2021/03/26 04:01:19;;;;;;;53.10;28.67;;;;;;;;;;4917472;29;20096;-68
2021/03/26 04:03:50;;;;;;;59.17;30.98;;;;;;;;;;4923933;29;20027;-69
2021/03/26 04:06:20;;;;;;;56.08;29.92;;;;;;;;;;4923839;29;20032;-69
2021/03/26 04:08:49;;;;;;;57.05;30.55;;;;;;;;;;4907348;29;20487;-69
2021/03/26 04:11:18;;;;;;;54.80;29.45;;;;;;;;;;4924085;29;20070;-68
2021/03/26 04:13:49;;;;;;;56.70;30.50;;;;;;;;;;4923509;29;20500;-68
2021/03/26 04:16:18;;;;;;;46.28;23.17;;;;;;;;;;4923825;29;20054;-67
2021/03/26 04:19:00;;;;;;;57.13;29.73;;;;;;;;;;4923380;29;20123;-67
2021/03/26 04:21:34;;;;;;;56.20;30.23;;;;;;;;;;4906779;29;20035;-70
2021/03/26 04:24:00;;;;;;;64.65;32.75;;;;;;;;;;4923863;29;20103;-68
2021/03/26 04:26:34;;;;;;;59.65;31.17;;;;;;;;;;4906396;29;20538;-68
2021/03/26 04:29:03;;;;;;;57.30;29.92;;;;;;;;;;4923709;29;20055;-69
2021/03/26 04:31:33;;;;;;;52.47;29.05;;;;;;;;;;4924150;29;20036;-67
2021/03/26 04:34:00;;;;;;;55.42;29.80;;;;;;;;;;4906344;29;20039;-68
2021/03/26 04:36:29;;;;;;;57.22;31.55;;;;;;;;;;4923579;29;20473;-68
2021/03/26 04:39:04;;;;;;;55.08;30.40;;;;;;;;;;4906492;29;20043;-66
2021/03/26 04:41:38;;;;;;;55.67;29.40;;;;;;;;;;4923520;29;20030;-67
2021/03/26 04:44:09;;;;;;;57.85;30.52;;;;;;;;;;4924436;29;20028;-68
2021/03/26 04:46:44;;;;;;;66.25;34.22;;;;;;;;;;4923259;29;20056;-66
2021/03/26 04:49:24;;;;;;;62.28;31.63;;;;;;;;;;4923547;29;20031;-69
2021/03/26 04:52:01;;;;;;;58.92;30.75;;;;;;;;;;4923572;29;20024;-69
2021/03/26 04:54:27;;;;;;;60.25;31.02;;;;;;;;;;4923414;29;20103;-69
2021/03/26 04:57:03;;;;;;;63.30;32.25;;;;;;;;;;4923349;29;20028;-68
2021/03/26 04:59:36;;;;;;;59.97;29.63;;;;;;;;;;4923403;29;20035;-68
2021/03/26 05:02:03;;;;;;;63.25;31.52;;;;;;;;;;4922772;29;20056;-68
2021/03/26 05:04:31;;;;;;;60.45;30.20;;;;;;;;;;4923349;29;20024;-66
2021/03/26 05:07:03;;;;;;;58.58;30.92;;;;;;;;;;4923588;29;20472;-67
2021/03/26 05:09:40;;;;;;;62.23;33.07;;;;;;;;;;4923118;29;20032;-68
2021/03/26 05:12:18;;;;;;;56.33;30.00;;;;;;;;;;4923347;29;20032;-68
2021/03/26 05:14:46;;;;;;;61.30;30.38;;;;;;;;;;4919442;29;20017;-68
2021/03/26 05:17:21;;;;;;;58.78;31.23;;;;;;;;;;4920261;29;20029;-68
2021/03/26 05:19:53;;;;;;;63.55;32.72;;;;;;;;;;4903256;29;20043;-67
2021/03/26 05:22:22;;;;;;;60.53;32.72;;;;;;;;;;4919824;29;20365;-68
2021/03/26 05:24:54;;;;;;;57.13;31.45;;;;;;;;;;4920366;29;20032;-68
2021/03/26 05:27:20;;;;;;;56.10;31.17;;;;;;;;;;4920000;29;20484;-69
2021/03/26 05:29:48;;;;;;;66.82;34.67;;;;;;;;;;4902742;29;20065;-68
2021/03/26 05:32:14;;;;;;;62.22;34.65;;;;;;;;;;4919754;29;20476;-68
2021/03/26 05:34:45;;;;;;;61.28;32.25;;;;;;;;;;4919654;29;20103;-68
2021/03/26 05:37:14;;;;;;;61.65;34.20;;;;;;;;;;4919599;29;20095;-68
2021/03/26 05:39:41;;;;;;;61.22;34.63;;;;;;;;;;4920142;29;20024;-68
2021/03/26 05:42:27;;;;;;;61.22;34.47;;;;;;;;;;4920269;29;20027;-69
2021/03/26 05:45:11;;;;;;;63.67;35.08;;;;;;;;;;4919385;29;20356;-67
2021/03/26 05:47:44;;;;;;;60.10;31.08;;;;;;;;;;4919996;29;20087;-68
2021/03/26 05:50:10;;;;;;;;;;;;;;;;;;4919896;29;20020;-69
2021/03/26 05:52:36;;;;;;;59.30;33.22;;;;;;;;;;4919895;29;20355;-67
2021/03/26 05:55:04;;;;;;;61.08;33.03;;;;;;;;;;4919515;29;20028;-68
2021/03/26 05:57:30;;;;;;;60.55;32.28;;;;;;;;;;4919031;29;20032;-68
2021/03/26 06:00:23;;;;;;;53.58;29.95;;;;;;;;;;4919827;29;20037;-69
2021/03/26 06:03:08;;;;;;;56.90;30.23;;;;;;;;;;4899534;29;20056;-69
2021/03/26 06:05:42;;;;;;;53.38;30.15;;;;;;;;;;4918839;29;20084;-69
2021/03/26 06:08:18;;;;;;;55.45;33.25;;;;;;;;;;4902407;29;20123;-70
2021/03/26 06:10:50;;;;;;;58.70;33.60;;;;;;;;;;4919029;29;20080;-67
2021/03/26 06:13:28;;;;;;;55.13;31.58;;;;;;;;;;4918965;29;20032;-68
2021/03/26 06:16:01;;;;;;;66.30;37.28;;;;;;;;;;4919513;29;20107;-68
2021/03/26 06:18:39;;;;;;;89.57;49.70;;;;;;;;;;4918780;29;20040;-67
2021/03/26 06:21:23;;;;;;;64.97;34.58;;;;;;;;;;4918976;29;20520;-67
2021/03/26 06:23:58;;;;;;;61.90;33.13;;;;;;;;;;4918817;29;20024;-65
2021/03/26 06:26:43;;;;;;;70.90;37.28;;;;;;;;;;4918693;29;20020;-68
2021/03/26 06:29:09;;;;;;;61.03;32.40;;;;;;;;;;4902116;29;20519;-67
2021/03/26 06:32:01;;;;;;;59.83;30.75;;;;;;;;;;4919121;29;20060;-67
2021/03/26 06:34:27;;;;;;;53.42;30.23;;;;;;;;;;4916061;29;20421;-68
2021/03/26 06:37:05;;;;;;;68.05;35.55;;;;;;;;;;4918955;29;20028;-68
2021/03/26 06:39:38;;;;;;;71.20;38.47;;;;;;;;;;4918109;29;20357;-67
2021/03/26 06:42:28;;;;;;;79.93;44.92;;;;;;;;;;4919087;29;20035;-69
2021/03/26 06:45:06;;;;;;;77.57;42.40;;;;;;;;;;4917717;29;20035;-66
2021/03/26 06:47:44;;;;;;;73.80;38.85;;;;;;;;;;4917654;29;20104;-65
2021/03/26 06:50:19;;;;;;;65.65;37.60;;;;;;;;;;4914210;29;20024;-68
2021/03/26 06:53:04;;;;;;;82.28;44.13;;;;;;;;;;4906431;29;20024;-68
2021/03/26 06:55:39;;;;;;;64.35;33.53;;;;;;;;;;4911373;29;20062;-67
2021/03/26 06:58:24;;;;;;;56.92;29.38;;;;;;;;;;4917379;29;20554;-68
2021/03/26 07:01:00;;;;;;;57.88;29.75;;;;;;;;;;4917328;29;20044;-67
2021/03/26 07:03:35;;;;;;;44.15;22.45;;;;;;;;;;4915035;29;20032;-67
2021/03/26 07:06:22;;;;;;;36.70;17.83;;;;;;;;;;4901023;29;20021;-69
2021/03/26 07:09:09;;;;;;;37.90;18.63;;;;;;;;;;4906685;29;20032;-67
2021/03/26 07:11:38;;;;;;;36.75;18.45;;;;;;;;;;4915046;29;20024;-68
2021/03/26 07:14:04;;;;;;;39.13;18.98;;;;;;;;;;4917303;29;20066;-67
2021/03/26 07:16:36;;;;;;;39.53;18.50;;;;;;;;;;4917702;29;20024;-69
2021/03/26 07:19:02;;;;;;;;;;;;;;;;;;4915091;29;20087;-67
2021/03/26 07:21:28;;;;;;;37.60;18.45;;;;;;;;;;4900490;29;19930;-67
2021/03/26 07:24:13;;;;;;;30.23;17.70;;;;;;;;;;4910641;29;20048;-66
2021/03/26 07:26:58;;;;;;;37.28;19.70;;;;;;;;;;4917497;29;20075;-68
2021/03/26 07:29:31;;;;;;;35.15;19.42;;;;;;;;;;4914953;29;20442;-68
2021/03/26 07:32:20;;;;;;;41.50;20.55;;;;;;;;;;4908713;29;20024;-67
2021/03/26 07:34:49;;;;;;;35.35;19.08;;;;;;;;;;4908592;29;20388;-67
2021/03/26 07:37:35;;;;;;;39.30;20.52;;;;;;;;;;4891521;29;20188;-68
2021/03/26 07:40:05;;;;;;;33.58;17.80;;;;;;;;;;4912867;29;20546;-66
2021/03/26 07:42:40;;;;;;;32.88;17.02;;;;;;;;;;4891353;29;20119;-69
2021/03/26 07:45:36;;;;;;;30.55;16.27;;;;;;;;;;4910174;29;20028;-71
2021/03/26 07:48:02;;;;;;;32.15;16.92;;;;;;;;;;4891210;29;20044;-69
2021/03/26 07:50:40;;;;;;;32.40;16.98;;;;;;;;;;4907522;29;20125;-68
2021/03/26 07:53:24;;;;;;;31.50;17.20;;;;;;;;;;4904191;29;20028;-69
2021/03/26 07:55:50;;;;;;;29.80;15.90;;;;;;;;;;4901811;29;20491;-68
2021/03/26 07:58:36;;;;;;;31.65;16.40;;;;;;;;;;4905080;29;20062;-68
2021/03/26 08:01:02;;;;;;;30.42;15.57;;;;;;;;;;4906384;29;20044;-71
2021/03/26 08:03:39;;;;;;;35.10;18.88;;;;;;;;;;4903384;29;20040;-67
2021/03/26 08:06:35;;;;;;;42.13;22.73;;;;;;;;;;4909938;29;20031;-69
2021/03/26 08:09:19;;;;;;;34.78;17.92;;;;;;;;;;4835229;29;20046;-70
2021/03/26 08:12:00;;;;;;;29.50;15.48;;;;;;;;;;4823876;29;20034;-71
2021/03/26 08:14:29;;;;;;;28.77;14.40;;;;;;;;;;4822600;29;20132;-72
2021/03/26 08:17:18;;;;;;;27.75;13.70;;;;;;;;;;4838092;29;20097;-72
2021/03/26 08:19:44;;;;;;;30.30;13.93;;;;;;;;;;4839321;29;20113;-71
2021/03/26 08:22:16;;;;;;;26.55;11.95;;;;;;;;;;4839445;29;20600;-71
2021/03/26 08:24:51;;;;;;;27.23;15.23;;;;;;;;;;4839586;29;20030;-73
2021/03/26 08:27:23;;;;;;;22.65;11.57;;;;;;;;;;4824443;29;20033;-71
2021/03/26 08:30:07;;;;;;;18.75;10.38;;;;;;;;;;4829369;29;20066;-73
2021/03/26 08:32:59;;;;;;;22.23;12.10;;;;;;;;;;4830864;29;20103;-72
2021/03/26 08:35:25;;;;;;;15.48;8.80;;;;;;;;;;4805753;29;20090;-73
2021/03/26 08:37:57;;;;;;;17.92;9.82;;;;;;;;;;4815471;29;20042;-71
2021/03/26 08:40:26;;;;;;;16.60;9.93;;;;;;;;;;4834406;29;20034;-71
2021/03/26 08:42:53;;;;;;;19.10;8.93;;;;;;;;;;4836352;29;20026;-70
2021/03/26 08:45:26;;;;;;;18.67;10.95;;;;;;;;;;4874308;29;20036;-69
2021/03/26 08:47:58;;;;;;;21.65;12.13;;;;;;;;;;4912762;29;20021;-68
2021/03/26 08:50:28;;;;;;;22.42;12.07;;;;;;;;;;4901971;29;20035;-70
2021/03/26 08:53:01;;;;;;;21.15;11.50;;;;;;;;;;4902106;29;20031;-70
2021/03/26 08:55:54;;;;;;;24.42;13.80;;;;;;;;;;4918986;29;20117;-69
2021/03/26 08:58:38;;;;;;;17.92;10.55;;;;;;;;;;4898366;29;20076;-69
2021/03/26 09:01:14;;;;;;;22.20;12.32;;;;;;;;;;4902809;29;20059;-68
2021/03/26 09:03:59;;;;;;;28.13;14.40;;;;;;;;;;4919741;29;20116;-70
2021/03/26 09:06:32;;;;;;;22.48;11.63;;;;;;;;;;4917461;29;20036;-69
2021/03/26 09:08:57;;;;;;;;;;;;;;;;;;4922839;29;20028;-70
2021/03/26 09:11:39;;;;;;;23.33;11.55;;;;;;;;;;4901654;29;19918;-71
2021/03/26 09:14:13;;;;;;;30.40;11.98;;;;;;;;;;4918085;29;20054;-68
2021/03/26 09:16:44;;;;;;;22.00;11.73;;;;;;;;;;4915615;29;20110;-68
2021/03/26 09:19:22;;;;;;;21.23;11.65;;;;;;;;;;4916200;29;20060;-70
2021/03/26 09:21:59;;;;;;;21.60;12.25;;;;;;;;;;4906959;29;20235;-68
2021/03/26 09:24:45;;;;;;;23.38;11.50;;;;;;;;;;4904137;29;20024;-69
2021/03/26 09:27:24;;;;;;;19.15;11.23;;;;;;;;;;4909813;29;20036;-69
2021/03/26 09:30:02;;;;;;;20.45;11.68;;;;;;;;;;4913813;29;20524;-68
2021/03/26 09:32:36;;;;;;;20.40;11.70;;;;;;;;;;4903178;29;20091;-69
2021/03/26 09:35:06;;;;;;;26.92;11.85;;;;;;;;;;4909625;29;20035;-70
2021/03/26 09:37:36;;;;;;;19.25;11.07;;;;;;;;;;4906299;29;20400;-71
2021/03/26 09:40:09;;;;;;;20.83;11.60;;;;;;;;;;4892886;29;20036;-69
2021/03/26 09:42:40;;;;;;;19.63;11.25;;;;;;;;;;4907089;29;20148;-66
2021/03/26 09:45:09;;;;;;;22.35;11.85;;;;;;;;;;4902254;29;20031;-71
2021/03/26 09:48:05;;;;;;;18.52;12.05;;;;;;;;;;4914570;29;20032;-69
2021/03/26 09:50:57;;;;;;;21.10;11.50;;;;;;;;;;4844329;29;20379;-70
2021/03/26 09:53:23;;;;;;;20.15;11.93;;;;;;;;;;4859583;29;20033;-68
2021/03/26 09:55:52;;;;;;;22.40;11.48;;;;;;;;;;4858983;29;20041;-67
2021/03/26 09:58:27;;;;;;;22.00;12.25;;;;;;;;;;4858719;29;20102;-70
2021/03/26 10:00:53;;;;;;;21.70;12.18;;;;;;;;;;4855943;29;20042;-69
2021/03/26 10:03:34;;;;;;;20.92;12.52;;;;;;;;;;4859185;29;20068;-66
2021/03/26 10:06:03;;;;;;;20.75;12.38;;;;;;;;;;4858433;29;20037;-68
2021/03/26 10:11:18;;;;;;;18.75;11.43;;;;;;;;;;4856276;29;20070;-68
2021/03/26 10:13:51;;;;;;;18.33;11.13;;;;;;;;;;4857031;29;20533;-66
2021/03/26 10:16:21;;;;;;;17.55;11.43;;;;;;;;;;4854818;29;20070;-69
2021/03/26 10:18:53;;;;;;;22.02;11.63;;;;;;;;;;4840038;29;20040;-69
2021/03/26 10:21:24;;;;;;;20.90;11.90;;;;;;;;;;4840789;29;20041;-69
2021/03/26 10:24:01;;;;;;;20.30;10.88;;;;;;;;;;4858654;29;20117;-71
2021/03/26 10:26:46;;;;;;;18.58;10.85;;;;;;;;;;4869807;29;20036;-67
2021/03/26 10:29:25;;;;;;;19.58;10.88;;;;;;;;;;4906580;29;20032;-67
2021/03/26 10:31:53;;;;;;;18.75;11.05;;;;;;;;;;4908021;29;20490;-68
2021/03/26 10:34:30;;;;;;;19.17;11.80;;;;;;;;;;4891250;29;20024;-66
2021/03/26 10:36:56;;;;;;;20.95;10.90;;;;;;;;;;4905045;29;20035;-67
2021/03/26 10:39:26;;;;;;;18.92;10.88;;;;;;;;;;4886730;29;20040;-66
2021/03/26 10:41:52;;;;;;;20.30;11.27;;;;;;;;;;4907742;29;20481;-65
2021/03/26 10:45:02;;;;;;;21.10;11.88;;;;;;;;;;4905177;29;20033;-67
2021/03/26 10:47:30;;;;;;;18.65;11.23;;;;;;;;;;4880646;29;20381;-68
2021/03/26 10:50:02;;;;;;;19.35;11.18;;;;;;;;;;4910507;29;21216;-66
2021/03/26 10:52:34;;;;;;;24.57;13.57;;;;;;;;;;4891230;29;20036;-66
2021/03/26 10:55:00;;;;;;;;;;;;;;;;;;4908593;29;20274;-71
2021/03/26 10:57:35;;;;;;;21.58;11.85;;;;;;;;;;4916103;29;19919;-68
2021/03/26 11:00:05;;;;;;;18.95;11.52;;;;;;;;;;4915579;29;20440;-69
2021/03/26 11:02:42;;;;;;;19.63;10.95;;;;;;;;;;4917364;29;20107;-69
2021/03/26 11:05:08;;;;;;;16.10;10.85;;;;;;;;;;4898181;29;20380;-67
2021/03/26 11:07:40;;;;;;;19.63;11.63;;;;;;;;;;4898676;29;20467;-68
2021/03/26 11:10:07;;;;;;;19.33;11.90;;;;;;;;;;4916322;29;20024;-69
2021/03/26 11:12:40;;;;;;;21.23;12.35;;;;;;;;;;4915822;29;20508;-70
2021/03/26 11:15:13;;;;;;;24.75;12.65;;;;;;;;;;4898438;29;20020;-68
2021/03/26 11:17:45;;;;;;;22.70;12.55;;;;;;;;;;4900402;29;20051;-67
2021/03/26 11:20:11;;;;;;;23.33;12.43;;;;;;;;;;4915896;29;20032;-70
2021/03/26 11:22:39;;;;;;;22.83;12.50;;;;;;;;;;4898680;29;20072;-70
2021/03/26 11:25:08;;;;;;;20.75;12.40;;;;;;;;;;4916739;29;20028;-71
2021/03/26 11:28:01;;;;;;;21.35;12.48;;;;;;;;;;4916160;29;20016;-70
2021/03/26 11:30:26;;;;;;;;;;;;;;;;;;4897181;29;20032;-68
2021/03/26 11:32:56;;;;;;;25.08;14.00;;;;;;;;;;4916590;29;20205;-70
2021/03/26 11:35:23;;;;;;;20.08;12.73;;;;;;;;;;4916422;29;20055;-70
2021/03/26 11:37:55;;;;;;;21.95;12.95;;;;;;;;;;4914131;29;20504;-70
2021/03/26 11:40:30;;;;;;;15.43;9.38;;;;;;;;;;4913848;29;20047;-73
2021/03/26 11:43:05;;;;;;;20.90;13.00;;;;;;;;;;4898467;29;20120;-70
2021/03/26 11:45:34;;;;;;;27.02;16.08;;;;;;;;;;4897148;29;20039;-69
2021/03/26 11:48:14;;;;;;;22.48;12.60;;;;;;;;;;4914381;29;20559;-68
2021/03/26 11:51:01;;;;;;;24.10;14.15;;;;;;;;;;4909967;29;20028;-68
2021/03/26 11:53:30;;;;;;;22.15;13.77;;;;;;;;;;4865233;29;20032;-72
2021/03/26 11:56:18;;;;;;;27.27;16.00;;;;;;;;;;4912039;29;20047;-70
2021/03/26 11:59:03;;;;;;;25.35;13.63;;;;;;;;;;4891392;29;20041;-67
2021/03/26 12:01:35;;;;;;;21.52;12.73;;;;;;;;;;4891858;29;20052;-70
2021/03/26 12:04:09;;;;;;;22.23;12.88;;;;;;;;;;4889964;29;20032;-68
2021/03/26 12:06:44;;;;;;;25.52;13.07;;;;;;;;;;4890096;29;20025;-68
2021/03/26 12:09:30;;;;;;;22.05;12.57;;;;;;;;;;4887756;29;20024;-68
2021/03/26 12:12:08;;;;;;;20.30;12.48;;;;;;;;;;4907680;29;20429;-68
2021/03/26 12:14:40;;;;;;;22.83;12.20;;;;;;;;;;4914946;29;20027;-69
2021/03/26 12:17:26;;;;;;;21.58;12.60;;;;;;;;;;4916110;29;20021;-70
2021/03/26 12:19:59;;;;;;;20.45;12.75;;;;;;;;;;4910515;29;20057;-69
2021/03/26 12:22:31;;;;;;;22.80;12.55;;;;;;;;;;4899777;29;20055;-69
2021/03/26 12:25:03;;;;;;;22.42;12.70;;;;;;;;;;4920747;29;20547;-68
2021/03/26 12:27:41;;;;;;;20.90;12.70;;;;;;;;;;4917604;29;20040;-68
2021/03/26 12:30:10;;;;;;;21.00;12.90;;;;;;;;;;4920137;29;20494;-68
2021/03/26 12:32:55;;;;;;;31.23;14.85;;;;;;;;;;4919386;29;20035;-69
2021/03/26 12:35:33;;;;;;;25.27;13.25;;;;;;;;;;4919369;29;20028;-68
2021/03/26 12:38:02;;;;;;;22.60;12.65;;;;;;;;;;4919239;29;20440;-67
2021/03/26 12:40:47;;;;;;;24.38;13.38;;;;;;;;;;4916539;29;20456;-68
2021/03/26 12:43:24;;;;;;;20.92;12.30;;;;;;;;;;4900592;29;20023;-69
2021/03/26 12:46:28;;;;;;;32.20;13.48;;;;;;;;;;4917378;29;20028;-70
2021/03/26 12:49:01;;;;;;;23.55;12.70;;;;;;;;;;4872758;29;20440;-70
2021/03/26 12:51:46;;;;;;;22.67;13.13;;;;;;;;;;4902933;29;20103;-72
2021/03/26 12:54:12;;;;;;;26.77;14.32;;;;;;;;;;4899679;29;20024;-69
2021/03/26 12:57:01;;;;;;;33.13;17.30;;;;;;;;;;4918605;29;20052;-70
2021/03/26 12:59:40;;;;;;;35.47;20.63;;;;;;;;;;4890170;29;20044;-68
2021/03/26 13:02:15;;;;;;;21.55;13.05;;;;;;;;;;4905301;29;20092;-69
2021/03/26 13:04:50;;;;;;;24.23;13.32;;;;;;;;;;4916929;29;20547;-70
2021/03/26 13:07:27;;;;;;;22.55;14.02;;;;;;;;;;4901938;29;20056;-66
2021/03/26 13:09:53;;;;;;;28.25;16.67;;;;;;;;;;4910942;29;20028;-69
2021/03/26 13:12:21;;;;;;;26.48;15.80;;;;;;;;;;4907293;29;20039;-70
2021/03/26 13:14:53;;;;;;;21.60;14.32;;;;;;;;;;4914677;29;20020;-68
2021/03/26 13:17:24;;;;;;;24.77;14.18;;;;;;;;;;4912125;29;20084;-69
2021/03/26 13:19:51;;;;;;;21.90;11.32;;;;;;;;;;4894113;29;20116;-69
2021/03/26 13:22:19;;;;;;;24.33;14.15;;;;;;;;;;4893048;29;20121;-70
2021/03/26 13:24:51;;;;;;;26.30;14.30;;;;;;;;;;4917182;29;20039;-69
2021/03/26 13:27:20;;;;;;;25.60;14.27;;;;;;;;;;4903489;29;20017;-69
2021/03/26 13:29:53;;;;;;;27.63;15.88;;;;;;;;;;4892350;29;20028;-68
2021/03/26 13:32:21;;;;;;;24.23;13.27;;;;;;;;;;4895414;29;20174;-72
2021/03/26 13:34:47;;;;;;;22.67;13.73;;;;;;;;;;4918432;29;20027;-71
2021/03/26 13:37:19;;;;;;;20.73;12.93;;;;;;;;;;4918481;29;20020;-72
2021/03/26 13:39:48;;;;;;;22.52;13.50;;;;;;;;;;4895298;29;20087;-71
2021/03/26 13:42:20;;;;;;;24.13;13.35;;;;;;;;;;4913359;29;20435;-71
2021/03/26 13:45:06;;;;;;;22.00;12.40;;;;;;;;;;4892712;29;20035;-72
2021/03/26 13:47:42;;;;;;;22.67;12.63;;;;;;;;;;4884015;29;20071;-73
2021/03/26 13:50:17;;;;;;;26.25;13.82;;;;;;;;;;4888996;29;20477;-71
2021/03/26 13:52:55;;;;;;;23.75;13.20;;;;;;;;;;4898499;29;20048;-71
2021/03/26 13:55:25;;;;;;;23.58;13.02;;;;;;;;;;4914325;29;20512;-71
2021/03/26 13:58:12;;;;;;;20.25;11.80;;;;;;;;;;4905208;29;20052;-72
2021/03/26 14:00:39;;;;;;;21.40;13.07;;;;;;;;;;4897566;29;20459;-69
2021/03/26 14:03:14;;;;;;;25.75;12.68;;;;;;;;;;4918541;29;20036;-70
2021/03/26 14:05:49;;;;;;;33.15;16.70;;;;;;;;;;4901919;29;20476;-70
2021/03/26 14:08:27;;;;;;;24.27;13.15;;;;;;;;;;4918369;29;20025;-68
2021/03/26 14:10:56;;;;;;;22.40;13.15;;;;;;;;;;4918117;29;20016;-70
2021/03/26 14:13:24;;;;;;;22.58;13.13;;;;;;;;;;4918012;29;20028;-72
2021/03/26 14:16:00;;;;;;;22.75;13.60;;;;;;;;;;4901208;29;20024;-72
2021/03/26 14:18:27;;;;;;;24.52;14.20;;;;;;;;;;4898334;29;20024;-71
2021/03/26 14:21:09;;;;;;;22.73;13.10;;;;;;;;;;4888197;29;20051;-69
2021/03/26 14:23:37;;;;;;;26.90;14.50;;;;;;;;;;4887606;29;20024;-70
2021/03/26 14:26:09;;;;;;;24.60;15.10;;;;;;;;;;4911373;29;20711;-68
2021/03/26 14:28:40;;;;;;;24.80;15.57;;;;;;;;;;4918244;29;20032;-68
2021/03/26 14:31:15;;;;;;;27.08;15.02;;;;;;;;;;4901104;29;20278;-66
2021/03/26 14:33:44;;;;;;;23.35;14.00;;;;;;;;;;4917992;29;20032;-68
2021/03/26 14:36:17;;;;;;;23.08;13.50;;;;;;;;;;4918271;29;20024;-67
2021/03/26 14:38:56;;;;;;;21.88;14.13;;;;;;;;;;4900644;29;20036;-67
2021/03/26 14:41:39;;;;;;;25.00;13.77;;;;;;;;;;4901523;29;20461;-67
2021/03/26 14:44:05;;;;;;;22.02;12.68;;;;;;;;;;4917701;29;20032;-66
2021/03/26 14:46:40;;;;;;;26.70;14.80;;;;;;;;;;4896926;29;20028;-67
2021/03/26 14:49:08;;;;;;;28.80;15.60;;;;;;;;;;4910887;29;20060;-67
2021/03/26 14:51:45;;;;;;;23.00;13.75;;;;;;;;;;4908290;29;20024;-66
2021/03/26 14:54:32;;;;;;;23.90;13.32;;;;;;;;;;4914226;29;20019;-68